Time;durP1;ratioP1;P1;durP2;ratioP2;P2;SDS_P1;SDS_P2;PMS_P1;PMS_P2;Temp;Humidity;BMP_temperature;BMP_pressure;BME280_temperature;BME280_humidity;BME280_pressure;Samples;Min_cycle;Max_cycle;Signal;HPM_P1;HPM_P2
2022/10/12 00:00:36;;;;;;;5.53;2.40;;;8.60;99.90;;;;;;5036370;28;20269;-72
2022/10/12 00:03:01;;;;;;;5.70;2.70;;;8.70;99.90;;;;;;5036340;28;20213;-73
2022/10/12 00:05:27;;;;;;;4.60;2.70;;;8.60;99.90;;;;;;5035068;28;20201;-72
2022/10/12 00:07:57;;;;;;;5.83;2.77;;;8.60;99.90;;;;;;5030323;28;20269;-73
2022/10/12 00:10:23;;;;;;;4.77;3.20;;;8.50;99.90;;;;;;5035483;28;20213;-72
2022/10/12 00:12:51;;;;;;;5.23;3.00;;;8.50;99.90;;;;;;5035721;28;20193;-71
2022/10/12 00:15:17;;;;;;;5.93;2.63;;;8.50;99.90;;;;;;5034570;28;20206;-73
2022/10/12 00:17:47;;;;;;;4.43;2.67;;;8.40;99.90;;;;;;5034879;28;20181;-73
2022/10/12 00:20:13;;;;;;;4.27;2.57;;;8.40;99.90;;;;;;5035236;28;20250;-72
2022/10/12 00:22:38;;;;;;;4.53;2.73;;;8.30;99.90;;;;;;5028034;28;20398;-72
2022/10/12 00:25:04;;;;;;;5.37;2.40;;;8.30;99.90;;;;;;5035502;28;20190;-73
2022/10/12 00:27:30;;;;;;;4.43;2.50;;;8.30;99.90;;;;;;5035827;28;20261;-72
2022/10/12 00:29:55;;;;;;;4.00;2.40;;;8.20;99.90;;;;;;5030529;28;20206;-73
2022/10/12 00:32:21;;;;;;;4.47;2.20;;;8.40;99.90;;;;;;5034256;28;20197;-72
2022/10/12 00:34:49;;;;;;;3.33;2.30;;;8.30;99.90;;;;;;5035213;28;20189;-73
2022/10/12 00:37:17;;;;;;;2.63;2.07;;;8.30;99.90;;;;;;5034087;28;20184;-73
2022/10/12 00:39:42;;;;;;;3.93;2.53;;;8.20;99.90;;;;;;5034671;28;20178;-72
2022/10/12 00:42:22;;;;;;;6.87;2.60;;;8.20;99.90;;;;;;5034145;28;20293;-72
2022/10/12 00:44:50;;;;;;;3.60;2.37;;;8.20;99.90;;;;;;5027495;28;20307;-72
2022/10/12 00:47:21;;;;;;;5.43;2.30;;;8.20;99.90;;;;;;5034506;28;20178;-72
2022/10/12 00:49:59;;;;;;;4.77;3.10;;;8.20;99.90;;;;;;5033741;28;20197;-72
2022/10/12 00:52:41;;;;;;;3.97;2.60;;;8.20;99.90;;;;;;5033239;28;20216;-73
2022/10/12 00:55:09;;;;;;;4.17;2.33;;;8.20;99.90;;;;;;5027343;28;20173;-72
2022/10/12 00:57:35;;;;;;;3.30;2.27;;;8.20;99.90;;;;;;5032872;28;20189;-72
2022/10/12 01:00:05;;;;;;;3.60;2.50;;;8.10;99.90;;;;;;5034226;28;20170;-73
2022/10/12 01:02:33;;;;;;;5.07;2.80;;;8.10;99.90;;;;;;5034255;28;20228;-72
2022/10/12 01:05:01;;;;;;;3.50;2.23;;;8.10;99.90;;;;;;5028207;28;20225;-72
2022/10/12 01:07:29;;;;;;;4.33;2.50;;;8.00;99.90;;;;;;5031531;28;20189;-72
2022/10/12 01:09:55;;;;;;;3.30;2.30;;;8.00;99.90;;;;;;5033535;28;20205;-72
2022/10/12 01:12:23;;;;;;;4.10;2.40;;;7.90;99.90;;;;;;5034292;28;20174;-72
2022/10/12 01:14:52;;;;;;;4.30;2.20;;;8.00;99.90;;;;;;5030184;28;20185;-73
2022/10/12 01:17:21;;;;;;;3.97;2.30;;;7.90;99.90;;;;;;5028531;28;20293;-73
2022/10/12 01:20:27;;;;;;;3.53;2.10;;;7.90;99.90;;;;;;5040205;28;20185;-71
2022/10/12 01:23:05;;;;;;;4.80;2.60;;;7.90;99.90;;;;;;5032836;28;20357;-73
2022/10/12 01:25:52;;;;;;;3.50;2.57;;;7.90;99.90;;;;;;5026268;28;20175;-73
2022/10/12 01:28:52;;;;;;;3.67;2.30;;;7.80;99.90;;;;;;5032091;28;20170;-72
2022/10/12 01:32:02;;;;;;;5.70;2.50;;;7.80;99.90;;;;;;5040313;28;20209;-71
2022/10/12 01:34:35;;;;;;;5.53;2.30;;;7.80;99.90;;;;;;5030155;28;20244;-72
2022/10/12 01:37:14;;;;;;;3.03;2.00;;;7.70;99.90;;;;;;5039396;28;20202;-70
2022/10/12 01:39:55;;;;;;;3.60;2.00;;;7.70;99.90;;;;;;5033464;28;20205;-72
2022/10/12 01:42:28;;;;;;;5.00;2.20;;;7.60;99.90;;;;;;5035649;28;20198;-72
2022/10/12 01:45:07;;;;;;;3.53;2.13;;;7.60;99.90;;;;;;5035918;28;20166;-72
2022/10/12 01:47:36;;;;;;;3.20;2.20;;;7.60;99.90;;;;;;5017649;28;20170;-72
2022/10/12 01:50:07;;;;;;;4.57;2.33;;;7.50;99.90;;;;;;5035472;28;20189;-73
2022/10/12 01:52:53;;;;;;;3.77;2.40;;;7.60;99.90;;;;;;5035209;28;20178;-72
2022/10/12 01:55:35;;;;;;;3.00;1.93;;;7.60;99.90;;;;;;5034541;28;20220;-72
2022/10/12 01:58:20;;;;;;;3.17;2.07;;;7.60;99.90;;;;;;5038135;28;20201;-73
2022/10/12 02:01:09;;;;;;;5.00;2.00;;;7.60;99.90;;;;;;5031890;28;20193;-72
2022/10/12 02:03:48;;;;;;;2.80;2.03;;;7.60;99.90;;;;;;5018743;28;20202;-72
2022/10/12 02:06:18;;;;;;;3.10;2.00;;;7.60;99.90;;;;;;5029917;28;20194;-72
2022/10/12 02:08:49;;;;;;;4.33;1.90;;;7.60;99.90;;;;;;5037201;28;20170;-73
2022/10/12 02:11:24;;;;;;;3.90;2.10;;;7.60;99.90;;;;;;5032157;28;20209;-72
2022/10/12 02:13:52;;;;;;;3.33;1.80;;;7.60;99.90;;;;;;5030025;28;20181;-72
2022/10/12 02:16:21;;;;;;;3.47;1.97;;;7.60;99.90;;;;;;5041780;28;20200;-72
2022/10/12 02:18:50;;;;;;;2.80;1.83;;;7.60;99.90;;;;;;5035450;28;20198;-73
2022/10/12 02:21:23;;;;;;;3.37;1.80;;;7.60;99.90;;;;;;5033668;28;20272;-72
2022/10/12 02:23:50;;;;;;;4.53;2.03;;;7.60;99.90;;;;;;5034667;28;20217;-72
2022/10/12 02:26:18;;;;;;;3.27;2.00;;;7.60;99.90;;;;;;5037113;28;20185;-73
2022/10/12 02:28:46;;;;;;;3.93;1.90;;;7.50;99.90;;;;;;5036000;28;20186;-72
2022/10/12 02:31:29;;;;;;;3.17;1.90;;;7.60;99.90;;;;;;5034192;28;20198;-72
2022/10/12 02:34:14;;;;;;;2.60;1.60;;;7.60;99.90;;;;;;5020640;28;20192;-71
2022/10/12 02:36:51;;;;;;;3.77;1.93;;;7.60;99.90;;;;;;5025188;28;20209;-73
2022/10/12 02:39:30;;;;;;;3.40;2.13;;;7.60;99.90;;;;;;5025502;28;20205;-74
2022/10/12 02:42:00;;;;;;;4.40;2.03;;;7.50;99.90;;;;;;5037285;28;20224;-72
2022/10/12 02:44:30;;;;;;;4.60;2.00;;;7.60;99.90;;;;;;5017415;28;20206;-73
2022/10/12 02:47:00;;;;;;;2.57;1.63;;;7.50;99.90;;;;;;5026368;28;20209;-72
2022/10/12 02:49:27;;;;;;;3.47;2.00;;;7.50;99.90;;;;;;5035812;28;20170;-72
2022/10/12 02:51:57;;;;;;;5.10;1.87;;;7.50;99.90;;;;;;5036243;28;20170;-73
2022/10/12 02:54:23;;;;;;;4.67;2.07;;;7.50;99.90;;;;;;5036837;28;20201;-72
2022/10/12 02:56:51;;;;;;;2.47;1.90;;;7.50;99.90;;;;;;5035138;28;20222;-73
2022/10/12 02:59:19;;;;;;;3.23;1.93;;;7.50;99.90;;;;;;5037469;28;20214;-72
2022/10/12 03:01:45;;;;;;;3.33;1.77;;;7.50;99.90;;;;;;5033649;28;20210;-73
2022/10/12 03:04:10;;;;;;;3.93;1.90;;;7.50;99.90;;;;;;5031068;28;20259;-73
2022/10/12 03:06:36;;;;;;;2.63;1.70;;;7.50;99.90;;;;;;5034649;28;20243;-72
2022/10/12 03:09:03;;;;;;;4.17;1.87;;;7.50;99.90;;;;;;5036666;28;20184;-73
2022/10/12 03:11:30;;;;;;;2.87;1.77;;;7.50;99.90;;;;;;5025646;28;20267;-72
2022/10/12 03:13:58;;;;;;;3.00;1.80;;;7.50;99.90;;;;;;5032544;28;20194;-72
2022/10/12 03:16:24;;;;;;;3.63;1.90;;;7.50;99.90;;;;;;5027959;28;20208;-73
2022/10/12 03:18:50;;;;;;;3.13;1.77;;;7.50;99.90;;;;;;5025084;28;20182;-72
2022/10/12 03:21:15;;;;;;;3.50;1.80;;;7.50;99.90;;;;;;5037848;28;20262;-73
2022/10/12 03:23:44;;;;;;;2.77;1.83;;;7.50;99.90;;;;;;5034379;28;20201;-72
2022/10/12 03:26:09;;;;;;;3.97;1.70;;;7.50;99.90;;;;;;5035301;28;20181;-73
2022/10/12 03:28:35;;;;;;;4.37;2.03;;;7.50;99.90;;;;;;5034270;28;20182;-73
2022/10/12 03:31:01;;;;;;;2.63;1.90;;;7.40;99.90;;;;;;5036188;28;20205;-73
2022/10/12 03:33:27;;;;;;;5.53;1.97;;;7.40;99.90;;;;;;5036678;28;20205;-77
2022/10/12 03:35:53;;;;;;;7.67;5.57;;;7.40;99.90;;;;;;5034495;28;20188;-73
2022/10/12 03:38:22;;;;;;;7.13;4.37;;;7.40;99.90;;;;;;5027867;28;20316;-78
2022/10/12 03:40:47;;;;;;;4.57;3.47;;;7.40;99.90;;;;;;5020314;28;20186;-80
2022/10/12 03:43:13;;;;;;;4.03;2.80;;;7.40;99.90;;;;;;5030060;28;20272;-80
2022/10/12 03:45:39;;;;;;;9.47;5.30;;;7.40;99.90;;;;;;5032119;28;20202;-79
2022/10/12 03:48:05;;;;;;;8.10;4.50;;;7.30;99.90;;;;;;5034106;28;20239;-71
2022/10/12 03:50:34;;;;;;;5.57;3.40;;;7.30;99.90;;;;;;5023413;28;20256;-77
2022/10/12 03:53:07;;;;;;;4.30;2.80;;;7.30;99.90;;;;;;5032973;28;20247;-77
2022/10/12 03:55:33;;;;;;;5.10;2.80;;;7.30;99.90;;;;;;5029056;28;20175;-80
2022/10/12 03:57:58;;;;;;;5.23;2.70;;;7.20;99.90;;;;;;5032636;28;20178;-79
2022/10/12 04:00:24;;;;;;;5.93;2.57;;;7.20;99.90;;;;;;5034026;28;20170;-79
2022/10/12 04:02:50;;;;;;;4.93;3.23;;;7.20;99.90;;;;;;5029145;28;20216;-79
2022/10/12 04:05:16;;;;;;;5.57;3.00;;;7.20;99.90;;;;;;5028147;28;20177;-79
2022/10/12 04:07:45;;;;;;;4.73;3.10;;;7.20;99.90;;;;;;5030863;28;20257;-80
2022/10/12 04:10:13;;;;;;;4.10;2.67;;;7.20;99.90;;;;;;5034592;28;20233;-78
2022/10/12 04:12:41;;;;;;;6.17;3.23;;;7.20;99.90;;;;;;5030536;28;20185;-76
2022/10/12 04:15:07;;;;;;;4.07;2.60;;;7.20;99.90;;;;;;5034374;28;20171;-76
2022/10/12 04:17:35;;;;;;;3.77;2.80;;;7.20;99.90;;;;;;5034995;28;20174;-79
2022/10/12 04:20:00;;;;;;;4.57;2.90;;;7.20;99.90;;;;;;5034145;28;20194;-80
2022/10/12 04:22:26;;;;;;;4.37;3.00;;;7.20;99.90;;;;;;5034215;28;20197;-80
2022/10/12 04:24:54;;;;;;;6.10;3.43;;;7.20;99.90;;;;;;5022278;28;20174;-80
2022/10/12 04:27:22;;;;;;;5.93;3.30;;;7.20;99.90;;;;;;5034260;28;20269;-77
2022/10/12 04:29:48;;;;;;;6.27;4.57;;;7.20;99.90;;;;;;5030409;28;20174;-76
2022/10/12 04:32:13;;;;;;;5.43;3.70;;;7.20;99.90;;;;;;5033071;28;20174;-80
2022/10/12 04:34:39;;;;;;;5.13;3.40;;;7.10;99.90;;;;;;5033482;28;20200;-76
2022/10/12 04:37:05;;;;;;;7.13;3.87;;;7.20;99.90;;;;;;5031769;28;20182;-76
2022/10/12 04:39:30;;;;;;;6.27;3.67;;;7.20;99.90;;;;;;5024214;28;20206;-75
2022/10/12 04:41:56;;;;;;;5.60;3.47;;;7.20;99.90;;;;;;5031446;28;20193;-76
2022/10/12 04:44:22;;;;;;;4.53;3.40;;;7.20;99.90;;;;;;5033590;28;20181;-75
2022/10/12 04:46:47;;;;;;;4.40;2.90;;;7.30;99.90;;;;;;5032786;28;20173;-76
2022/10/12 04:49:13;;;;;;;5.33;3.47;;;7.30;99.90;;;;;;5033991;28;20186;-76
2022/10/12 04:51:39;;;;;;;4.63;3.27;;;7.30;99.90;;;;;;5030666;28;20179;-73
2022/10/12 04:54:05;;;;;;;5.77;3.73;;;7.30;99.90;;;;;;5034051;28;20252;-75
2022/10/12 04:56:30;;;;;;;4.20;3.03;;;7.30;99.90;;;;;;5037380;28;20176;-77
2022/10/12 04:58:58;;;;;;;5.33;3.53;;;7.40;99.90;;;;;;5036262;28;20205;-75
2022/10/12 05:01:24;;;;;;;5.67;3.27;;;7.40;99.90;;;;;;5033608;28;20265;-76
2022/10/12 05:03:50;;;;;;;4.67;2.80;;;7.40;99.90;;;;;;5035858;28;20280;-75
2022/10/12 05:06:18;;;;;;;5.00;3.10;;;7.40;99.90;;;;;;5034554;28;20261;-77
2022/10/12 05:08:43;;;;;;;4.00;3.00;;;7.50;99.90;;;;;;5027097;28;20177;-80
2022/10/12 05:11:14;;;;;;;4.90;3.40;;;7.50;99.90;;;;;;5037856;28;20289;-79
2022/10/12 05:13:40;;;;;;;5.47;3.27;;;7.50;99.90;;;;;;5039782;28;20165;-79
2022/10/12 05:16:19;;;;;;;5.47;3.30;;;7.50;99.90;;;;;;5036359;28;20183;-79
2022/10/12 05:18:47;;;;;;;3.47;2.80;;;7.50;99.90;;;;;;5032408;28;20206;-79
2022/10/12 05:21:13;;;;;;;4.60;2.70;;;7.50;99.90;;;;;;5037155;28;20181;-79
2022/10/12 05:23:38;;;;;;;3.77;2.47;;;7.50;99.90;;;;;;5032314;28;20221;-74
2022/10/12 05:26:04;;;;;;;4.40;2.93;;;7.50;99.90;;;;;;5039854;28;20241;-79
2022/10/12 05:28:33;;;;;;;3.13;2.50;;;7.50;99.90;;;;;;5038706;28;20206;-79
2022/10/12 05:30:58;;;;;;;3.57;2.60;;;7.50;99.90;;;;;;5026205;28;20166;-76
2022/10/12 05:33:27;;;;;;;4.73;3.00;;;7.50;99.90;;;;;;5034856;28;20182;-80
2022/10/12 05:35:53;;;;;;;4.07;2.63;;;7.50;99.90;;;;;;5037183;28;20268;-79
2022/10/12 05:38:19;;;;;;;5.17;2.63;;;7.50;99.90;;;;;;5037158;28;20294;-77
2022/10/12 05:40:44;;;;;;;3.90;2.63;;;7.50;99.90;;;;;;5037905;28;20217;-76
2022/10/12 05:43:10;;;;;;;5.60;3.20;;;7.40;99.90;;;;;;5044706;28;20198;-78
2022/10/12 05:45:38;;;;;;;4.33;2.70;;;7.40;99.90;;;;;;5018780;28;20183;-80
2022/10/12 05:48:04;;;;;;;4.00;2.50;;;7.40;99.90;;;;;;5029797;28;20205;-76
2022/10/12 05:50:32;;;;;;;4.70;2.70;;;7.30;99.90;;;;;;5027968;28;20171;-75
2022/10/12 05:52:58;;;;;;;3.60;2.33;;;7.30;99.90;;;;;;5025040;28;20273;-69
2022/10/12 05:55:27;;;;;;;4.23;2.70;;;7.30;99.90;;;;;;5035257;28;20201;-74
2022/10/12 05:57:53;;;;;;;4.17;2.77;;;7.20;99.90;;;;;;5033390;28;20203;-73
2022/10/12 06:00:22;;;;;;;5.70;2.80;;;7.20;99.90;;;;;;5057584;28;20200;-62
2022/10/12 06:02:50;;;;;;;5.40;2.80;;;7.20;99.90;;;;;;5057902;28;20209;-66
2022/10/12 06:05:19;;;;;;;4.77;2.70;;;7.20;99.90;;;;;;5055714;28;20201;-63
2022/10/12 06:07:45;;;;;;;3.80;2.47;;;7.20;99.90;;;;;;5035016;28;20185;-77
2022/10/12 06:10:11;;;;;;;3.27;2.40;;;7.10;99.90;;;;;;5033260;28;20170;-78
2022/10/12 06:12:40;;;;;;;3.23;2.50;;;7.10;99.90;;;;;;5016545;28;20234;-75
2022/10/12 06:15:06;;;;;;;5.67;2.70;;;7.10;99.90;;;;;;5026217;28;20239;-75
2022/10/12 06:17:33;;;;;;;3.97;2.60;;;7.10;99.90;;;;;;5024189;28;20206;-67
2022/10/12 06:19:59;;;;;;;4.13;2.40;;;7.10;99.90;;;;;;5016331;28;20278;-76
2022/10/12 06:22:24;;;;;;;3.37;2.60;;;7.10;99.90;;;;;;5024363;28;20289;-74
2022/10/12 06:24:50;;;;;;;3.37;2.30;;;7.20;99.90;;;;;;5024625;28;20248;-75
2022/10/12 06:27:18;;;;;;;3.90;2.40;;;7.10;99.90;;;;;;5030053;28;20186;-74
2022/10/12 06:29:44;;;;;;;4.17;2.23;;;7.10;99.90;;;;;;5021925;28;20206;-75
2022/10/12 06:32:10;;;;;;;4.53;2.63;;;7.10;99.90;;;;;;5036076;28;20239;-74
2022/10/12 06:34:37;;;;;;;3.73;2.57;;;7.10;99.90;;;;;;5035479;28;20212;-75
2022/10/12 06:37:03;;;;;;;4.43;2.50;;;7.10;99.90;;;;;;5032240;28;20214;-72
2022/10/12 06:39:29;;;;;;;4.47;2.87;;;7.10;99.90;;;;;;5019698;28;20245;-72
2022/10/12 06:41:57;;;;;;;4.37;2.93;;;7.10;99.90;;;;;;5030056;28;20198;-74
2022/10/12 06:44:34;;;;;;;3.90;2.90;;;7.10;99.90;;;;;;5031683;28;20170;-74
2022/10/12 06:47:00;;;;;;;5.10;2.67;;;7.10;99.90;;;;;;5031642;28;20208;-74
2022/10/12 06:49:28;;;;;;;5.20;2.87;;;7.10;99.90;;;;;;5030074;28;20301;-73
2022/10/12 06:52:07;;;;;;;3.77;2.57;;;7.20;99.90;;;;;;5035073;28;20196;-72
2022/10/12 06:54:32;;;;;;;4.87;2.97;;;7.20;99.90;;;;;;5035596;28;20181;-74
2022/10/12 06:56:58;;;;;;;7.23;3.00;;;7.20;99.90;;;;;;5031762;28;20196;-75
2022/10/12 06:59:26;;;;;;;4.83;3.03;;;7.30;99.90;;;;;;5023387;28;20214;-74
2022/10/12 07:01:52;;;;;;;6.17;3.70;;;7.30;99.90;;;;;;5034544;28;20197;-74
2022/10/12 07:04:18;;;;;;;6.27;3.40;;;7.30;99.90;;;;;;5034857;28;20185;-71
2022/10/12 07:06:49;;;;;;;5.53;3.87;;;7.30;99.90;;;;;;5035169;28;20220;-75
2022/10/12 07:09:16;;;;;;;5.13;3.47;;;7.40;99.90;;;;;;5034871;28;20281;-77
2022/10/12 07:11:41;;;;;;;5.53;3.00;;;7.40;99.90;;;;;;5032511;28;20210;-75
2022/10/12 07:14:13;;;;;;;6.27;3.20;;;7.40;99.90;;;;;;5036135;28;20312;-76
2022/10/12 07:16:44;;;;;;;5.97;3.60;;;7.50;99.90;;;;;;5035303;28;20213;-76
2022/10/12 07:19:10;;;;;;;5.13;3.50;;;7.50;99.90;;;;;;5036866;28;20181;-75
2022/10/12 07:21:36;;;;;;;6.00;3.73;;;7.60;99.90;;;;;;5036145;28;20186;-76
2022/10/12 07:24:02;;;;;;;6.23;4.00;;;7.60;99.90;;;;;;5039737;28;20220;-77
2022/10/12 07:26:28;;;;;;;7.20;3.90;;;7.60;99.90;;;;;;5038488;28;20189;-76
2022/10/12 07:28:57;;;;;;;5.63;4.13;;;7.70;99.90;;;;;;5038986;28;20212;-76
2022/10/12 07:31:23;;;;;;;5.93;4.17;;;7.70;99.90;;;;;;5028845;28;20241;-75
2022/10/12 07:33:49;;;;;;;5.73;3.57;;;7.80;99.90;;;;;;5032888;28;20182;-76
2022/10/12 07:36:20;;;;;;;6.73;4.43;;;7.80;99.90;;;;;;5017641;28;20194;-74
2022/10/12 07:38:54;;;;;;;6.70;4.00;;;7.90;99.90;;;;;;5032844;28;20182;-75
2022/10/12 07:41:22;;;;;;;6.33;3.90;;;7.90;99.90;;;;;;5036385;28;20217;-76
2022/10/12 07:43:53;;;;;;;6.40;3.47;;;7.90;99.90;;;;;;5037025;28;20204;-75
2022/10/12 07:46:21;;;;;;;5.00;3.60;;;8.00;99.90;;;;;;5034422;28;20205;-76
2022/10/12 07:48:49;;;;;;;4.97;3.57;;;8.10;99.90;;;;;;5016434;28;20182;-72
2022/10/12 07:51:20;;;;;;;7.23;4.37;;;8.10;99.90;;;;;;5017143;28;20183;-75
2022/10/12 07:53:46;;;;;;;5.03;3.93;;;8.20;99.90;;;;;;5031634;28;20240;-73
2022/10/12 07:56:16;;;;;;;6.87;3.73;;;8.30;99.90;;;;;;5022640;28;20182;-77
2022/10/12 07:58:52;;;;;;;5.73;3.57;;;8.30;99.90;;;;;;5023880;28;20194;-77
2022/10/12 08:01:22;;;;;;;6.43;3.73;;;8.40;99.90;;;;;;5025695;28;20186;-74
2022/10/12 08:03:49;;;;;;;5.53;3.70;;;8.50;99.90;;;;;;5033884;28;20186;-71
2022/10/12 08:06:17;;;;;;;6.83;3.83;;;8.60;99.90;;;;;;5034968;28;20251;-77
2022/10/12 08:08:45;;;;;;;5.50;3.93;;;8.70;99.90;;;;;;5037234;28;20440;-77
2022/10/12 08:11:15;;;;;;;5.50;3.60;;;8.80;99.90;;;;;;5033757;28;20495;-76
2022/10/12 08:13:43;;;;;;;4.77;3.60;;;8.90;99.90;;;;;;5018296;28;20189;-73
2022/10/12 08:16:16;;;;;;;6.43;3.77;;;9.00;99.90;;;;;;5029934;28;20174;-75
2022/10/12 08:18:43;;;;;;;3.73;2.90;;;9.10;99.90;;;;;;5034056;28;20205;-74
2022/10/12 08:21:13;;;;;;;5.60;3.40;;;9.10;99.90;;;;;;5024364;28;20190;-75
2022/10/12 08:23:40;;;;;;;4.20;2.97;;;9.30;99.90;;;;;;5038601;28;20248;-73
2022/10/12 08:26:07;;;;;;;5.40;3.00;;;9.40;99.90;;;;;;5015326;28;20175;-71
2022/10/12 08:28:35;;;;;;;5.20;3.00;;;9.50;99.90;;;;;;5037736;28;20190;-72
2022/10/12 08:31:06;;;;;;;4.27;2.93;;;9.50;99.90;;;;;;5028673;28;20174;-75
2022/10/12 08:33:34;;;;;;;6.60;3.23;;;9.70;99.90;;;;;;5033753;28;20178;-76
2022/10/12 08:36:05;;;;;;;6.60;3.00;;;9.80;99.90;;;;;;5035058;28;20197;-71
2022/10/12 08:38:33;;;;;;;5.13;3.40;;;9.90;99.90;;;;;;5035206;28;20197;-75
2022/10/12 08:41:02;;;;;;;7.67;3.07;;;10.10;99.90;;;;;;5035039;28;20186;-73
2022/10/12 08:43:49;;;;;;;5.23;3.03;;;10.20;99.90;;;;;;5034514;28;20220;-74
2022/10/12 08:46:19;;;;;;;3.97;2.60;;;10.40;99.90;;;;;;5019159;28;20301;-73
2022/10/12 08:48:47;;;;;;;11.23;3.03;;;10.60;99.90;;;;;;5027085;28;20209;-75
2022/10/12 08:51:21;;;;;;;3.58;2.58;;;10.70;99.90;;;;;;5016456;28;20196;-74
2022/10/12 08:53:56;;;;;;;5.05;3.05;;;10.90;99.90;;;;;;5033861;28;20239;-76
2022/10/12 08:56:22;;;;;;;4.45;2.95;;;11.10;99.90;;;;;;5033059;28;20192;-72
2022/10/12 08:58:50;;;;;;;5.38;2.70;;;11.20;99.90;;;;;;5033205;28;20185;-75
2022/10/12 09:01:38;;;;;;;5.43;2.63;;;11.40;99.90;;;;;;5032743;28;20229;-77
2022/10/12 09:04:32;;;;;;;4.13;2.20;;;11.60;99.90;;;;;;5020912;28;20194;-75
2022/10/12 09:07:14;;;;;;;4.90;2.05;;;11.70;99.90;;;;;;5012026;28;20182;-78
2022/10/12 09:10:11;;;;;;;3.78;2.10;;;11.90;99.90;;;;;;5032909;28;20201;-76
2022/10/12 09:12:55;;;;;;;3.85;2.40;;;12.10;99.90;;;;;;5020674;28;20185;-75
2022/10/12 09:15:37;;;;;;;4.35;2.60;;;12.20;99.90;;;;;;5025883;28;20198;-74
2022/10/12 09:18:17;;;;;;;4.15;2.55;;;12.50;99.90;;;;;;5017266;28;20179;-73
2022/10/12 09:20:47;;;;;;;4.20;2.08;;;12.80;99.90;;;;;;5027222;28;20208;-74
2022/10/12 09:23:30;;;;;;;4.40;2.60;;;13.20;99.90;;;;;;5034499;28;20212;-76
2022/10/12 09:26:20;;;;;;;4.13;2.38;;;13.60;99.90;;;;;;5017169;28;20179;-70
2022/10/12 09:28:59;;;;;;;5.38;2.30;;;13.90;99.90;;;;;;5026702;28;20210;-76
2022/10/12 09:31:27;;;;;;;3.67;2.30;;;14.30;99.90;;;;;;5028333;28;20179;-77
2022/10/12 09:34:00;;;;;;;4.25;2.25;;;14.50;99.90;;;;;;5027688;28;20182;-74
2022/10/12 09:36:33;;;;;;;5.50;2.28;;;14.80;99.90;;;;;;5031840;28;20174;-75
2022/10/12 09:39:03;;;;;;;3.25;2.08;;;15.10;99.90;;;;;;5035266;28;20166;-74
2022/10/12 09:41:35;;;;;;;4.53;2.20;;;15.50;99.90;;;;;;5037283;28;20233;-76
2022/10/12 09:44:03;;;;;;;3.47;2.22;;;15.80;99.90;;;;;;5028652;28;20190;-76
2022/10/12 09:46:40;;;;;;;3.70;2.15;;;16.20;99.90;;;;;;5037303;28;20181;-76
2022/10/12 09:49:06;;;;;;;5.10;2.20;;;16.50;99.90;;;;;;5024305;28;20189;-74
2022/10/12 09:51:32;;;;;;;2.60;1.70;;;16.70;99.90;;;;;;5032385;28;20523;-75
2022/10/12 09:54:03;;;;;;;5.68;2.42;;;16.90;99.90;;;;;;5036581;28;20212;-75
2022/10/12 09:56:54;;;;;;;3.85;2.20;;;17.10;99.90;;;;;;5037441;28;20269;-74
2022/10/12 09:59:25;;;;;;;4.95;2.15;;;17.50;99.90;;;;;;5023224;28;20245;-75
2022/10/12 10:02:12;;;;;;;3.58;2.10;;;17.80;99.90;;;;;;5025044;28;20241;-77
2022/10/12 10:04:39;;;;;;;4.30;1.83;;;18.20;99.90;;;;;;5036547;28;20444;-75
2022/10/12 10:07:21;;;;;;;3.95;2.08;;;18.40;99.90;;;;;;5035256;28;20193;-75
2022/10/12 10:10:03;;;;;;;3.10;1.98;;;18.50;99.90;;;;;;5030797;28;20174;-71
2022/10/12 10:12:32;;;;;;;4.43;2.05;;;18.50;99.90;;;;;;5016715;28;20225;-77
2022/10/12 10:14:58;;;;;;;4.30;2.08;;;18.40;99.90;;;;;;5025120;28;20292;-76
2022/10/12 10:17:26;;;;;;;4.22;2.20;;;18.30;99.90;;;;;;5036047;28;20241;-71
2022/10/12 10:19:57;;;;;;;4.13;2.10;;;18.10;99.90;;;;;;5033086;28;20181;-73
2022/10/12 10:22:28;;;;;;;4.95;2.47;;;18.10;99.90;;;;;;5026491;28;20195;-76
2022/10/12 10:24:58;;;;;;;7.85;2.30;;;18.10;99.90;;;;;;5017995;28;20162;-78
2022/10/12 10:27:38;;;;;;;2.88;2.10;;;18.10;99.90;;;;;;5036159;28;20176;-74
2022/10/12 10:30:17;;;;;;;4.68;2.25;;;18.10;99.90;;;;;;5035476;28;20212;-76
2022/10/12 10:32:45;;;;;;;2.63;1.70;;;18.30;99.90;;;;;;5035435;28;20181;-74
2022/10/12 10:35:10;;;;;;;3.83;1.95;;;18.40;99.90;;;;;;5035883;28;20256;-73
2022/10/12 10:37:43;;;;;;;4.53;2.03;;;18.50;99.90;;;;;;5031826;28;20183;-75
2022/10/12 10:40:31;;;;;;;3.78;2.03;;;18.60;99.90;;;;;;5015756;28;20261;-75
2022/10/12 10:43:02;;;;;;;2.83;1.92;;;18.50;99.90;;;;;;5015744;28;20202;-75
2022/10/12 10:46:07;;;;;;;2.80;1.90;;;18.50;99.90;;;;;;5030531;28;20430;-74
2022/10/12 10:49:05;;;;;;;3.53;2.20;;;18.30;99.90;;;;;;4997981;28;20349;-74
2022/10/12 10:51:51;;;;;;;5.22;1.90;;;18.10;99.90;;;;;;5020894;28;20270;-75
2022/10/12 10:54:23;;;;;;;3.10;1.70;;;18.00;99.90;;;;;;5036092;28;20177;-74
2022/10/12 10:57:16;;;;;;;4.13;1.90;;;17.80;99.90;;;;;;5032504;28;20178;-76
2022/10/12 11:00:14;;;;;;;3.83;1.88;;;17.80;99.90;;;;;;5015582;28;20205;-76
2022/10/12 11:02:56;;;;;;;3.53;2.00;;;17.70;99.90;;;;;;5023520;28;20205;-76
2022/10/12 11:05:39;;;;;;;6.63;2.03;;;17.60;99.90;;;;;;5035351;28;20228;-77
2022/10/12 11:08:14;;;;;;;2.83;1.83;;;17.50;99.90;;;;;;5035426;28;20222;-76
2022/10/12 11:10:55;;;;;;;3.85;1.77;;;17.50;99.90;;;;;;5033050;28;20251;-76
2022/10/12 11:13:23;;;;;;;3.75;1.90;;;17.60;99.90;;;;;;5035206;28;20162;-76
2022/10/12 11:15:55;;;;;;;4.95;1.90;;;17.70;99.90;;;;;;5035485;28;20201;-75
2022/10/12 11:18:48;;;;;;;3.47;1.67;;;17.90;99.90;;;;;;5034709;28;20197;-76
2022/10/12 11:21:37;;;;;;;4.65;1.80;;;18.00;99.90;;;;;;5022959;28;20174;-78
2022/10/12 11:24:15;;;;;;;4.80;2.00;;;18.20;99.90;;;;;;5031605;28;20249;-76
2022/10/12 11:26:50;;;;;;;5.88;2.10;;;18.30;99.90;;;;;;5015541;28;20174;-76
2022/10/12 11:29:18;;;;;;;3.53;1.73;;;18.40;99.90;;;;;;5025690;28;20190;-76
2022/10/12 11:31:50;;;;;;;3.40;1.63;;;18.50;99.90;;;;;;5034038;28;20174;-75
2022/10/12 11:34:20;;;;;;;2.47;1.60;;;18.50;99.90;;;;;;5034743;28;20475;-77
2022/10/12 11:36:50;;;;;;;4.53;1.95;;;18.60;99.90;;;;;;5034393;28;20265;-74
2022/10/12 11:39:27;;;;;;;6.45;2.28;;;18.80;99.90;;;;;;5033029;28;20182;-72
2022/10/12 11:41:55;;;;;;;3.50;1.83;;;19.00;99.90;;;;;;5034077;28;20213;-75
2022/10/12 11:44:30;;;;;;;4.35;2.10;;;19.20;99.90;;;;;;5024701;28;20202;-76
2022/10/12 11:47:20;;;;;;;4.45;1.85;;;19.40;99.90;;;;;;5034674;28;20154;-76
2022/10/12 11:50:00;;;;;;;4.05;1.95;;;19.50;99.90;;;;;;5036769;28;20182;-77
2022/10/12 11:52:35;;;;;;;3.17;1.90;;;19.70;99.90;;;;;;5033597;28;20191;-76
2022/10/12 11:55:38;;;;;;;2.72;1.73;;;19.80;99.90;;;;;;5034182;28;20201;-77
2022/10/12 11:58:11;;;;;;;2.22;1.52;;;20.00;99.90;;;;;;5014799;28;20178;-77
2022/10/12 12:01:04;;;;;;;4.82;1.77;;;20.10;99.90;;;;;;5028242;28;20184;-76
2022/10/12 12:03:42;;;;;;;3.42;1.88;;;20.30;99.90;;;;;;5033904;28;20256;-68
2022/10/12 12:06:28;;;;;;;3.50;1.77;;;20.40;99.90;;;;;;5014337;28;20196;-77
2022/10/12 12:09:02;;;;;;;4.43;1.88;;;20.50;99.90;;;;;;5010273;28;20202;-75
2022/10/12 12:11:34;;;;;;;3.58;2.22;;;20.50;99.90;;;;;;5015579;28;20180;-76
2022/10/12 12:14:25;;;;;;;3.00;1.92;;;20.50;99.90;;;;;;5032434;28;20332;-76
2022/10/12 12:17:19;;;;;;;3.05;1.80;;;20.50;99.90;;;;;;5003236;28;20190;-76
2022/10/12 12:19:45;;;;;;;2.72;1.50;;;20.50;99.90;;;;;;5030531;28;20166;-77
2022/10/12 12:22:36;;;;;;;4.25;1.60;;;20.50;99.90;;;;;;5034689;28;20208;-77
2022/10/12 12:25:05;;;;;;;3.92;1.67;;;20.60;99.90;;;;;;5034508;28;20257;-77
2022/10/12 12:28:01;;;;;;;3.25;1.63;;;20.70;99.90;;;;;;5030158;28;20205;-76
2022/10/12 12:30:39;;;;;;;3.55;1.80;;;20.90;99.90;;;;;;5011687;28;20197;-77
2022/10/12 12:33:22;;;;;;;3.53;1.63;;;21.10;99.90;;;;;;5015941;28;20182;-78
2022/10/12 12:36:06;;;;;;;3.65;1.70;;;21.30;99.90;;;;;;5034543;28;20243;-76
2022/10/12 12:38:44;;;;;;;4.15;2.25;;;21.60;99.90;;;;;;5030550;28;20239;-74
2022/10/12 12:41:20;;;;;;;3.65;1.77;;;21.70;99.90;;;;;;5018354;28;20235;-75
2022/10/12 12:43:55;;;;;;;3.28;1.77;;;21.80;99.90;;;;;;5035308;28;20177;-78
2022/10/12 12:46:25;;;;;;;3.20;1.65;;;21.80;99.90;;;;;;5039551;28;20261;-76
2022/10/12 12:48:51;;;;;;;3.65;1.55;;;21.80;99.90;;;;;;5019587;28;20189;-75
2022/10/12 12:51:34;;;;;;;3.28;1.80;;;21.70;99.90;;;;;;5014539;28;20177;-75
2022/10/12 12:54:15;;;;;;;4.55;1.70;;;21.60;99.90;;;;;;5023135;28;20204;-74
2022/10/12 12:56:55;;;;;;;3.65;1.67;;;21.50;99.90;;;;;;5031996;28;20225;-75
2022/10/12 12:59:55;;;;;;;3.28;1.60;;;21.40;99.90;;;;;;5032584;28;20255;-73
2022/10/12 13:02:59;;;;;;;2.95;1.70;;;21.30;99.90;;;;;;5024829;28;20296;-75
2022/10/12 13:05:44;;;;;;;2.15;1.48;;;21.10;99.90;;;;;;5035630;28;20277;-73
2022/10/12 13:08:30;;;;;;;3.28;1.65;;;21.00;99.90;;;;;;5032718;28;20184;-75
2022/10/12 13:11:28;;;;;;;3.70;1.92;;;21.00;99.90;;;;;;5014944;28;20162;-73
2022/10/12 13:14:34;;;;;;;4.28;1.70;;;20.90;99.90;;;;;;5017646;28;20190;-75
2022/10/12 13:17:16;;;;;;;2.28;1.63;;;20.80;99.90;;;;;;5046042;28;20173;-76
2022/10/12 13:19:54;;;;;;;2.55;1.77;;;20.80;99.90;;;;;;5057994;28;20194;-76